Time;durP1;ratioP1;P1;durP2;ratioP2;P2;SDS_P1;SDS_P2;PMS_P1;PMS_P2;Temp;Humidity;BMP_temperature;BMP_pressure;BME280_temperature;BME280_humidity;BME280_pressure;Samples;Min_cycle;Max_cycle;Signal;HPM_P1;HPM_P2
2021/04/03 00:00:41;;;;;;;28.20;18.98;;;;;;;;;;5116681;28;20031;-67
2021/04/03 00:03:08;;;;;;;33.83;18.50;;;;;;;;;;5117441;28;20093;-67
2021/04/03 00:05:34;;;;;;;26.45;18.23;;;;;;;;;;5116871;28;20038;-67
2021/04/03 00:08:00;;;;;;;33.05;19.33;;;;;;;;;;5117406;28;20022;-68
2021/04/03 00:10:29;;;;;;;28.13;16.60;;;;;;;;;;5117087;28;20022;-69
2021/04/03 00:12:55;;;;;;;31.38;18.95;;;;;;;;;;5098464;28;20024;-67
2021/04/03 00:15:21;;;;;;;27.85;18.95;;;;;;;;;;5116720;28;20102;-66
2021/04/03 00:17:48;;;;;;;29.10;19.83;;;;;;;;;;5116929;28;20471;-67
2021/04/03 00:20:15;;;;;;;28.98;17.30;;;;;;;;;;5116257;28;20359;-68
2021/04/03 00:22:41;;;;;;;30.73;19.58;;;;;;;;;;5116642;28;20119;-68
2021/04/03 00:25:08;;;;;;;29.20;18.27;;;;;;;;;;5116825;28;20047;-68
2021/04/03 00:27:34;;;;;;;25.65;16.58;;;;;;;;;;5116823;28;20015;-67
2021/04/03 00:30:14;;;;;;;28.33;17.83;;;;;;;;;;5116734;28;20516;-66
2021/04/03 00:32:41;;;;;;;27.00;16.70;;;;;;;;;;5099045;28;20023;-68
2021/04/03 00:35:07;;;;;;;26.95;16.33;;;;;;;;;;5116089;28;20455;-67
2021/04/03 00:37:33;;;;;;;24.20;15.93;;;;;;;;;;5116610;28;20112;-66
2021/04/03 00:39:59;;;;;;;27.35;16.13;;;;;;;;;;5116292;28;20019;-67
2021/04/03 00:42:25;;;;;;;18.33;13.55;;;;;;;;;;5116113;28;20026;-65
2021/04/03 00:44:52;;;;;;;21.20;15.77;;;;;;;;;;5116169;28;20031;-67
2021/04/03 00:47:18;;;;;;;24.58;14.43;;;;;;;;;;5116064;28;20344;-67
2021/04/03 00:49:44;;;;;;;21.25;13.05;;;;;;;;;;5115788;28;20051;-67
2021/04/03 00:52:12;;;;;;;20.23;12.63;;;;;;;;;;5116622;28;20023;-68
2021/04/03 00:54:38;;;;;;;19.05;12.50;;;;;;;;;;5115960;28;20240;-68
2021/04/03 00:57:05;;;;;;;15.88;11.65;;;;;;;;;;5115880;28;20099;-68
2021/04/03 00:59:31;;;;;;;19.30;12.60;;;;;;;;;;5116766;28;20021;-67
2021/04/03 01:01:58;;;;;;;17.70;12.43;;;;;;;;;;5115706;28;20019;-68
2021/04/03 01:04:24;;;;;;;18.10;12.70;;;;;;;;;;5116276;28;20036;-67
2021/04/03 01:06:50;;;;;;;22.43;14.83;;;;;;;;;;5115748;28;20020;-69
2021/04/03 01:09:16;;;;;;;18.85;13.00;;;;;;;;;;5115349;28;20363;-69
2021/04/03 01:11:52;;;;;;;22.50;14.38;;;;;;;;;;5097573;28;20015;-67
2021/04/03 01:14:23;;;;;;;18.75;12.25;;;;;;;;;;5115970;28;20026;-67
2021/04/03 01:16:53;;;;;;;19.38;11.98;;;;;;;;;;5115320;28;20016;-66
2021/04/03 01:19:37;;;;;;;22.40;14.05;;;;;;;;;;5116362;28;20020;-67
2021/04/03 01:22:22;;;;;;;19.65;12.88;;;;;;;;;;5115832;28;20538;-66
2021/04/03 01:25:07;;;;;;;21.13;12.43;;;;;;;;;;5115625;28;20032;-65
2021/04/03 01:27:33;;;;;;;21.70;12.98;;;;;;;;;;5115603;28;20031;-66
2021/04/03 01:30:06;;;;;;;24.70;13.60;;;;;;;;;;5115309;28;20023;-67
2021/04/03 01:32:35;;;;;;;23.02;14.48;;;;;;;;;;5115375;28;20516;-67
2021/04/03 01:35:02;;;;;;;24.55;15.70;;;;;;;;;;5115455;28;20019;-66
2021/04/03 01:37:28;;;;;;;37.65;29.17;;;;;;;;;;5115406;28;20016;-67
2021/04/03 01:39:56;;;;;;;39.20;31.05;;;;;;;;;;5115069;28;20108;-66
2021/04/03 01:42:25;;;;;;;42.78;30.98;;;;;;;;;;5115275;28;20057;-66
2021/04/03 01:44:52;;;;;;;38.33;24.40;;;;;;;;;;5114970;28;20110;-66
2021/04/03 01:47:23;;;;;;;34.42;22.88;;;;;;;;;;5115272;28;20020;-66
2021/04/03 01:49:50;;;;;;;38.55;24.58;;;;;;;;;;5115558;28;20019;-66
2021/04/03 01:52:18;;;;;;;34.78;21.10;;;;;;;;;;5114803;28;20023;-67
2021/04/03 01:54:45;;;;;;;28.48;19.17;;;;;;;;;;5115456;28;20039;-67
2021/04/03 01:57:11;;;;;;;29.80;18.67;;;;;;;;;;5115034;28;20020;-66
2021/04/03 01:59:38;;;;;;;31.08;20.30;;;;;;;;;;5114415;28;20323;-66
2021/04/03 02:02:04;;;;;;;23.02;15.68;;;;;;;;;;5114830;28;20375;-66
2021/04/03 02:04:30;;;;;;;24.58;15.60;;;;;;;;;;5114570;28;20022;-66
2021/04/03 02:06:57;;;;;;;28.95;17.20;;;;;;;;;;5115003;28;20038;-67
2021/04/03 02:09:23;;;;;;;24.65;15.40;;;;;;;;;;5114512;28;20600;-66
2021/04/03 02:11:51;;;;;;;27.52;15.90;;;;;;;;;;5114487;28;20094;-66
2021/04/03 02:14:17;;;;;;;;;;;;;;;;;;5097198;28;20333;-67
2021/04/03 02:16:43;;;;;;;28.20;16.73;;;;;;;;;;5114457;28;19910;-66
2021/04/03 02:19:11;;;;;;;29.48;18.42;;;;;;;;;;5114478;28;20030;-66
2021/04/03 02:21:38;;;;;;;28.65;19.10;;;;;;;;;;5114962;28;20071;-67
2021/04/03 02:24:05;;;;;;;30.80;19.10;;;;;;;;;;5114820;28;20435;-66
2021/04/03 02:26:32;;;;;;;23.52;16.77;;;;;;;;;;5114602;28;20031;-66
2021/04/03 02:28:58;;;;;;;27.77;18.17;;;;;;;;;;5114570;28;20069;-66
2021/04/03 02:31:24;;;;;;;26.90;18.40;;;;;;;;;;5114513;28;20105;-67
2021/04/03 02:33:54;;;;;;;30.00;16.88;;;;;;;;;;5113890;28;20024;-66
2021/04/03 02:36:20;;;;;;;29.85;17.20;;;;;;;;;;5114188;28;20367;-67
2021/04/03 02:38:48;;;;;;;26.33;16.08;;;;;;;;;;5114436;28;20120;-66
2021/04/03 02:41:16;;;;;;;27.58;17.02;;;;;;;;;;5114060;28;20011;-66
2021/04/03 02:43:44;;;;;;;24.02;15.45;;;;;;;;;;5114283;28;20031;-69
2021/04/03 02:46:29;;;;;;;28.75;17.65;;;;;;;;;;5113789;28;20027;-68
2021/04/03 02:48:56;;;;;;;23.27;15.02;;;;;;;;;;5114335;28;20100;-68
2021/04/03 02:51:34;;;;;;;25.35;16.40;;;;;;;;;;5096026;28;20018;-66
2021/04/03 02:54:00;;;;;;;;;;;;;;;;;;5114077;28;20034;-67
2021/04/03 02:56:28;;;;;;;28.02;16.30;;;;;;;;;;5114248;28;19899;-67
2021/04/03 02:58:55;;;;;;;25.15;15.52;;;;;;;;;;5114196;28;20027;-68
2021/04/03 03:01:23;;;;;;;26.98;16.25;;;;;;;;;;5113761;28;20055;-69
2021/04/03 03:03:50;;;;;;;22.38;14.98;;;;;;;;;;5095846;28;20030;-68
2021/04/03 03:06:18;;;;;;;24.15;15.80;;;;;;;;;;5114140;28;20027;-67
2021/04/03 03:08:44;;;;;;;25.42;17.30;;;;;;;;;;5113798;28;20513;-69
2021/04/03 03:11:10;;;;;;;21.73;14.77;;;;;;;;;;5114099;28;20046;-68
2021/04/03 03:13:37;;;;;;;21.15;15.73;;;;;;;;;;5095826;28;20057;-68
2021/04/03 03:16:03;;;;;;;20.20;13.52;;;;;;;;;;5113775;28;20024;-67
2021/04/03 03:18:31;;;;;;;22.45;14.57;;;;;;;;;;5114337;28;20077;-66
2021/04/03 03:20:57;;;;;;;;;;;;;;;;;;5114324;28;20577;-67
2021/04/03 03:23:24;;;;;;;20.42;12.65;;;;;;;;;;5113362;28;19915;-67
2021/04/03 03:25:50;;;;;;;19.85;13.25;;;;;;;;;;5113738;28;20475;-68
2021/04/03 03:28:17;;;;;;;17.88;12.85;;;;;;;;;;5113647;28;20396;-69
2021/04/03 03:30:43;;;;;;;20.03;13.10;;;;;;;;;;5113649;28;20109;-69
2021/04/03 03:33:09;;;;;;;22.05;12.63;;;;;;;;;;5113634;28;20382;-68
2021/04/03 03:35:36;;;;;;;20.73;13.98;;;;;;;;;;5113557;28;20015;-69
2021/04/03 03:38:02;;;;;;;24.15;11.85;;;;;;;;;;5113558;28;20533;-69
2021/04/03 03:40:29;;;;;;;21.33;13.13;;;;;;;;;;5113841;28;20031;-69
2021/04/03 03:42:56;;;;;;;18.98;12.23;;;;;;;;;;5113845;28;20020;-68
2021/04/03 03:45:22;;;;;;;15.38;11.15;;;;;;;;;;5113801;28;20026;-69
2021/04/03 03:47:48;;;;;;;19.20;12.95;;;;;;;;;;5113738;28;20119;-68
2021/04/03 03:50:14;;;;;;;19.08;12.50;;;;;;;;;;5113701;28;20023;-68
2021/04/03 03:52:40;;;;;;;15.55;10.88;;;;;;;;;;5096034;28;20446;-68
2021/04/03 03:55:07;;;;;;;15.00;10.55;;;;;;;;;;5113394;28;20016;-68
2021/04/03 03:57:33;;;;;;;15.75;11.10;;;;;;;;;;5113763;28;20019;-68
2021/04/03 03:59:59;;;;;;;18.17;12.15;;;;;;;;;;5118225;28;20020;-67
2021/04/03 04:02:25;;;;;;;18.73;12.25;;;;;;;;;;5098939;28;20051;-67
2021/04/03 04:04:52;;;;;;;17.30;11.13;;;;;;;;;;5116756;28;20553;-68
2021/04/03 04:07:18;;;;;;;15.75;10.07;;;;;;;;;;5116886;28;20091;-68
2021/04/03 04:09:44;;;;;;;16.52;11.30;;;;;;;;;;5117349;28;20023;-68
2021/04/03 04:12:10;;;;;;;16.27;10.65;;;;;;;;;;5116827;28;20016;-68
2021/04/03 04:14:37;;;;;;;16.77;10.73;;;;;;;;;;5117065;28;20023;-67
2021/04/03 04:17:03;;;;;;;14.50;10.67;;;;;;;;;;5116816;28;20477;-66
2021/04/03 04:19:30;;;;;;;17.57;10.47;;;;;;;;;;5117042;28;20451;-67
2021/04/03 04:21:56;;;;;;;13.63;10.23;;;;;;;;;;5117044;28;20043;-67
2021/04/03 04:24:22;;;;;;;16.67;10.50;;;;;;;;;;5116773;28;20026;-67
2021/04/03 04:26:48;;;;;;;15.38;10.90;;;;;;;;;;5116599;28;20480;-68
2021/04/03 04:29:15;;;;;;;14.77;10.60;;;;;;;;;;5116755;28;20352;-67
2021/04/03 04:31:41;;;;;;;15.13;11.13;;;;;;;;;;5116151;28;20020;-66
2021/04/03 04:34:07;;;;;;;16.52;12.30;;;;;;;;;;5116397;28;20024;-67
2021/04/03 04:36:33;;;;;;;12.07;9.27;;;;;;;;;;5098343;28;20023;-68
2021/04/03 04:38:59;;;;;;;13.88;10.40;;;;;;;;;;5116307;28;20030;-68
2021/04/03 04:41:25;;;;;;;14.55;9.60;;;;;;;;;;5116597;28;20031;-68
2021/04/03 04:43:51;;;;;;;16.48;10.77;;;;;;;;;;5116421;28;20108;-69
2021/04/03 04:46:17;;;;;;;15.68;10.25;;;;;;;;;;5116191;28;20108;-66
2021/04/03 04:48:44;;;;;;;20.95;11.70;;;;;;;;;;5116959;28;20023;-68
2021/04/03 04:51:10;;;;;;;12.57;9.25;;;;;;;;;;5116039;28;20486;-68
2021/04/03 04:53:36;;;;;;;15.90;10.00;;;;;;;;;;5115977;28;20024;-67
2021/04/03 04:56:02;;;;;;;16.90;11.10;;;;;;;;;;5116252;28;20023;-66
2021/04/03 04:58:28;;;;;;;17.38;11.50;;;;;;;;;;5116661;28;20111;-66
2021/04/03 05:00:54;;;;;;;18.67;11.95;;;;;;;;;;5115882;28;20109;-69
2021/04/03 05:03:21;;;;;;;16.30;11.63;;;;;;;;;;5116608;28;20015;-66
2021/04/03 05:05:47;;;;;;;16.63;11.15;;;;;;;;;;5116068;28;20491;-65
2021/04/03 05:08:13;;;;;;;18.55;11.13;;;;;;;;;;5097422;28;20409;-65
2021/04/03 05:10:39;;;;;;;18.33;13.10;;;;;;;;;;5115729;28;20016;-70
2021/04/03 05:13:05;;;;;;;17.75;12.35;;;;;;;;;;5115932;28;20019;-67
2021/04/03 05:15:31;;;;;;;15.35;11.23;;;;;;;;;;5115542;28;20012;-63
2021/04/03 05:17:58;;;;;;;16.02;10.55;;;;;;;;;;5115541;28;20027;-64
2021/04/03 05:20:24;;;;;;;17.25;11.55;;;;;;;;;;5115457;28;20047;-63
2021/04/03 05:22:50;;;;;;;18.35;12.32;;;;;;;;;;5115704;28;20023;-63
2021/04/03 05:25:16;;;;;;;17.75;12.13;;;;;;;;;;5115364;28;20342;-63
2021/04/03 05:27:42;;;;;;;20.02;12.75;;;;;;;;;;5115287;28;20070;-66
2021/04/03 05:30:09;;;;;;;19.00;12.75;;;;;;;;;;5097275;28;20050;-64
2021/04/03 05:32:36;;;;;;;19.88;11.10;;;;;;;;;;5115751;28;20027;-64
2021/04/03 05:35:02;;;;;;;20.63;13.33;;;;;;;;;;5097009;28;20027;-66
2021/04/03 05:37:28;;;;;;;19.20;12.15;;;;;;;;;;5115699;28;20034;-64
2021/04/03 05:39:54;;;;;;;21.42;14.00;;;;;;;;;;5115861;28;20027;-64
2021/04/03 05:42:21;;;;;;;20.17;14.98;;;;;;;;;;5115024;28;20383;-65
2021/04/03 05:44:50;;;;;;;22.92;13.73;;;;;;;;;;5115315;28;20027;-65
2021/04/03 05:47:16;;;;;;;21.92;14.02;;;;;;;;;;5115531;28;20026;-65
2021/04/03 05:49:43;;;;;;;27.63;15.80;;;;;;;;;;5115093;28;20016;-65
2021/04/03 05:52:09;;;;;;;24.40;14.90;;;;;;;;;;5115467;28;20028;-65
2021/04/03 05:54:36;;;;;;;24.25;14.73;;;;;;;;;;5096845;28;20475;-66
2021/04/03 05:57:03;;;;;;;23.88;14.73;;;;;;;;;;5114844;28;20020;-64
2021/04/03 05:59:29;;;;;;;21.73;14.25;;;;;;;;;;5115022;28;20019;-68
2021/04/03 06:01:55;;;;;;;21.92;14.38;;;;;;;;;;5114995;28;20083;-67
2021/04/03 06:04:21;;;;;;;27.38;16.88;;;;;;;;;;5114577;28;20031;-65
2021/04/03 06:06:48;;;;;;;27.45;17.38;;;;;;;;;;5114929;28;20023;-66
2021/04/03 06:09:14;;;;;;;28.48;17.52;;;;;;;;;;5114595;28;20026;-66
2021/04/03 06:11:44;;;;;;;25.30;15.15;;;;;;;;;;5114283;28;20448;-66
2021/04/03 06:14:11;;;;;;;21.08;14.50;;;;;;;;;;5114651;28;20043;-66
2021/04/03 06:16:40;;;;;;;23.95;14.68;;;;;;;;;;5096173;28;20016;-67
2021/04/03 06:19:09;;;;;;;23.70;15.20;;;;;;;;;;5114495;28;20408;-67
2021/04/03 06:21:36;;;;;;;21.27;14.95;;;;;;;;;;5113824;28;20028;-63
2021/04/03 06:24:03;;;;;;;23.50;15.98;;;;;;;;;;5113992;28;20355;-65
2021/04/03 06:26:29;;;;;;;22.55;15.13;;;;;;;;;;5114606;28;20098;-65
2021/04/03 06:28:55;;;;;;;19.85;12.65;;;;;;;;;;5114564;28;20016;-65
2021/04/03 06:31:23;;;;;;;23.90;15.32;;;;;;;;;;5114266;28;20321;-65
2021/04/03 06:33:49;;;;;;;;;;;;;;;;;;5114958;28;20012;-67
2021/04/03 06:36:16;;;;;;;25.35;15.55;;;;;;;;;;5114246;28;19968;-67
2021/04/03 06:38:42;;;;;;;23.58;15.77;;;;;;;;;;5114172;28;20475;-66
2021/04/03 06:41:19;;;;;;;24.63;14.95;;;;;;;;;;5114461;28;20093;-66
2021/04/03 06:44:00;;;;;;;25.85;15.00;;;;;;;;;;5114648;28;20020;-66
2021/04/03 06:46:27;;;;;;;42.83;23.02;;;;;;;;;;5114036;28;20034;-67
2021/04/03 06:48:53;;;;;;;24.13;15.50;;;;;;;;;;5114360;28;20015;-66
2021/04/03 06:51:22;;;;;;;23.90;15.20;;;;;;;;;;5114035;28;20026;-67
2021/04/03 06:53:49;;;;;;;28.92;17.42;;;;;;;;;;5114275;28;20471;-66
2021/04/03 06:56:15;;;;;;;;;;;;;;;;;;5114989;28;20032;-66
2021/04/03 06:58:45;;;;;;;24.20;14.45;;;;;;;;;;5114157;28;19955;-66
2021/04/03 07:01:12;;;;;;;23.38;15.98;;;;;;;;;;5114236;28;20018;-66
2021/04/03 07:03:39;;;;;;;19.67;13.43;;;;;;;;;;5095865;28;20086;-66
2021/04/03 07:06:06;;;;;;;26.25;14.98;;;;;;;;;;5114240;28;20027;-66
2021/04/03 07:08:32;;;;;;;19.50;13.43;;;;;;;;;;5095915;28;20023;-66
2021/04/03 07:11:00;;;;;;;24.25;16.00;;;;;;;;;;5095847;28;20440;-66
2021/04/03 07:13:26;;;;;;;20.73;15.15;;;;;;;;;;5113777;28;20074;-65
2021/04/03 07:15:52;;;;;;;22.77;15.75;;;;;;;;;;5113768;28;20337;-66
2021/04/03 07:18:19;;;;;;;29.70;15.60;;;;;;;;;;5095803;28;20491;-67
2021/04/03 07:20:45;;;;;;;24.83;14.52;;;;;;;;;;5113743;28;20127;-67
2021/04/03 07:23:14;;;;;;;20.60;12.65;;;;;;;;;;5113621;28;20024;-65
2021/04/03 07:25:42;;;;;;;24.35;13.88;;;;;;;;;;5114247;28;20494;-65
2021/04/03 07:28:09;;;;;;;20.30;13.23;;;;;;;;;;5113932;28;20192;-67
2021/04/03 07:30:35;;;;;;;20.58;14.10;;;;;;;;;;5114207;28;20372;-66
2021/04/03 07:33:11;;;;;;;18.50;12.27;;;;;;;;;;5116766;28;20031;-67
2021/04/03 07:35:49;;;;;;;25.05;14.38;;;;;;;;;;5117575;28;20510;-66
2021/04/03 07:38:17;;;;;;;18.80;11.43;;;;;;;;;;5099554;28;20028;-66
2021/04/03 07:40:45;;;;;;;18.45;12.57;;;;;;;;;;5117393;28;20467;-66
2021/04/03 07:43:29;;;;;;;20.67;13.25;;;;;;;;;;5117605;28;20106;-65
2021/04/03 07:45:56;;;;;;;16.90;13.20;;;;;;;;;;5117373;28;20044;-66
2021/04/03 07:48:41;;;;;;;19.07;12.77;;;;;;;;;;5117642;28;20020;-66
2021/04/03 07:51:11;;;;;;;21.58;14.02;;;;;;;;;;5117504;28;20023;-65
2021/04/03 07:53:39;;;;;;;20.02;13.68;;;;;;;;;;5117476;28;20021;-66
2021/04/03 07:56:05;;;;;;;16.30;11.85;;;;;;;;;;5098869;28;20023;-65
2021/04/03 07:58:35;;;;;;;22.30;13.33;;;;;;;;;;5099159;28;20034;-65
2021/04/03 08:01:03;;;;;;;20.90;13.07;;;;;;;;;;5117200;28;20247;-69
2021/04/03 08:03:29;;;;;;;;;;;;;;;;;;5099067;28;20491;-65
2021/04/03 08:06:01;;;;;;;21.15;13.63;;;;;;;;;;5099011;28;19995;-65
2021/04/03 08:08:28;;;;;;;20.45;14.25;;;;;;;;;;5117198;28;20028;-64
2021/04/03 08:11:14;;;;;;;24.92;14.90;;;;;;;;;;5117038;28;20019;-65
2021/04/03 08:13:42;;;;;;;22.85;13.55;;;;;;;;;;5117140;28;20057;-65
2021/04/03 08:16:08;;;;;;;18.80;12.38;;;;;;;;;;5116739;28;20404;-64
2021/04/03 08:18:36;;;;;;;18.42;12.10;;;;;;;;;;5116979;28;20011;-64
2021/04/03 08:21:03;;;;;;;17.15;12.00;;;;;;;;;;5117204;28;20084;-65
2021/04/03 08:23:30;;;;;;;24.10;16.17;;;;;;;;;;5116550;28;20023;-65
2021/04/03 08:25:56;;;;;;;22.92;14.73;;;;;;;;;;5116883;28;20049;-66
2021/04/03 08:28:23;;;;;;;25.40;16.27;;;;;;;;;;5116498;28;20483;-66
2021/04/03 08:30:49;;;;;;;18.00;12.43;;;;;;;;;;5116571;28;20456;-64
2021/04/03 08:33:17;;;;;;;18.88;13.13;;;;;;;;;;5116469;28;20016;-66
2021/04/03 08:35:45;;;;;;;25.92;15.73;;;;;;;;;;5116844;28;20024;-65
2021/04/03 08:38:13;;;;;;;30.30;17.77;;;;;;;;;;5116410;28;20104;-65
2021/04/03 08:40:40;;;;;;;21.52;13.80;;;;;;;;;;5116578;28;20035;-65
2021/04/03 08:43:07;;;;;;;18.67;12.18;;;;;;;;;;5116623;28;20012;-65
2021/04/03 08:45:34;;;;;;;21.55;14.63;;;;;;;;;;5115498;28;20019;-65
2021/04/03 08:48:00;;;;;;;28.13;16.13;;;;;;;;;;5116426;28;20020;-66
2021/04/03 08:50:26;;;;;;;23.73;15.43;;;;;;;;;;5116343;28;20015;-65
2021/04/03 08:53:02;;;;;;;21.67;13.00;;;;;;;;;;5116341;28;20062;-66
2021/04/03 08:55:28;;;;;;;19.60;12.27;;;;;;;;;;5116575;28;20023;-68
2021/04/03 08:57:58;;;;;;;20.42;13.35;;;;;;;;;;5116245;28;20360;-68
2021/04/03 09:00:25;;;;;;;22.33;13.02;;;;;;;;;;5097895;28;20110;-67
2021/04/03 09:02:54;;;;;;;22.45;13.60;;;;;;;;;;5115805;28;20103;-67
2021/04/03 09:05:21;;;;;;;21.83;14.05;;;;;;;;;;5097536;28;20517;-68
2021/04/03 09:07:47;;;;;;;25.07;15.17;;;;;;;;;;5115810;28;20420;-70
2021/04/03 09:10:23;;;;;;;15.18;12.38;;;;;;;;;;5116007;28;20030;-70
2021/04/03 09:12:50;;;;;;;20.63;12.75;;;;;;;;;;5115850;28;20108;-69
2021/04/03 09:15:17;;;;;;;30.38;15.90;;;;;;;;;;5097641;28;20039;-68
2021/04/03 09:17:50;;;;;;;30.60;15.25;;;;;;;;;;5115865;28;20359;-69
2021/04/03 09:20:20;;;;;;;21.75;15.48;;;;;;;;;;5097197;28;20471;-68
2021/04/03 09:22:47;;;;;;;21.85;15.80;;;;;;;;;;5097067;28;20431;-69
2021/04/03 09:25:14;;;;;;;23.52;14.57;;;;;;;;;;5115444;28;20020;-69
2021/04/03 09:27:41;;;;;;;23.73;15.93;;;;;;;;;;5115666;28;20019;-66
2021/04/03 09:30:09;;;;;;;25.20;16.85;;;;;;;;;;5115280;28;20098;-68
2021/04/03 09:32:40;;;;;;;24.90;15.48;;;;;;;;;;5097246;28;20464;-69
2021/04/03 09:35:06;;;;;;;33.50;16.73;;;;;;;;;;5116164;28;20444;-65
2021/04/03 09:37:32;;;;;;;25.83;16.63;;;;;;;;;;5115168;28;20015;-67
2021/04/03 09:39:59;;;;;;;24.73;14.88;;;;;;;;;;5115379;28;20015;-65
2021/04/03 09:42:26;;;;;;;23.75;14.77;;;;;;;;;;5115350;28;20106;-67
2021/04/03 09:44:54;;;;;;;18.73;13.30;;;;;;;;;;5114797;28;20062;-66
2021/04/03 09:47:20;;;;;;;25.20;16.13;;;;;;;;;;5115337;28;20012;-67
2021/04/03 09:49:47;;;;;;;19.60;13.43;;;;;;;;;;5115546;28;20382;-66
2021/04/03 09:52:14;;;;;;;20.20;14.32;;;;;;;;;;5115191;28;20026;-66
2021/04/03 09:54:40;;;;;;;22.15;14.45;;;;;;;;;;5115446;28;20084;-65
2021/04/03 09:57:07;;;;;;;18.30;13.77;;;;;;;;;;5114475;28;20405;-67
2021/04/03 09:59:33;;;;;;;22.67;14.65;;;;;;;;;;5115056;28;20008;-66
2021/04/03 10:02:00;;;;;;;22.05;15.45;;;;;;;;;;5097361;28;20019;-68
2021/04/03 10:04:26;;;;;;;23.08;14.80;;;;;;;;;;5096404;28;20020;-68
2021/04/03 10:06:53;;;;;;;31.98;14.50;;;;;;;;;;5114864;28;20031;-65
2021/04/03 10:09:19;;;;;;;20.73;14.30;;;;;;;;;;5114853;28;20020;-66
2021/04/03 10:11:45;;;;;;;25.10;15.60;;;;;;;;;;5114937;28;20024;-66
2021/04/03 10:14:12;;;;;;;33.88;20.67;;;;;;;;;;5097015;28;20035;-65
2021/04/03 10:16:38;;;;;;;26.02;16.90;;;;;;;;;;5114709;28;20038;-65
2021/04/03 10:19:04;;;;;;;21.38;14.85;;;;;;;;;;5114424;28;20023;-64
2021/04/03 10:21:30;;;;;;;24.45;15.43;;;;;;;;;;5115069;28;20050;-66
2021/04/03 10:23:56;;;;;;;20.65;14.95;;;;;;;;;;5114600;28;20027;-65
2021/04/03 10:26:23;;;;;;;26.67;14.98;;;;;;;;;;5095852;28;20039;-65
2021/04/03 10:28:50;;;;;;;20.02;14.20;;;;;;;;;;5114272;28;20081;-66
2021/04/03 10:31:17;;;;;;;17.75;13.18;;;;;;;;;;5114594;28;20016;-65
2021/04/03 10:33:43;;;;;;;20.50;14.10;;;;;;;;;;5114272;28;20068;-64
2021/04/03 10:36:10;;;;;;;25.00;15.48;;;;;;;;;;5114754;28;20046;-64
2021/04/03 10:38:36;;;;;;;20.23;13.85;;;;;;;;;;5114511;28;20020;-65
2021/04/03 10:41:03;;;;;;;21.33;14.02;;;;;;;;;;5113799;28;20363;-65
2021/04/03 10:43:29;;;;;;;21.48;14.00;;;;;;;;;;5114118;28;20072;-66
2021/04/03 10:45:55;;;;;;;18.13;12.68;;;;;;;;;;5113722;28;20073;-65
2021/04/03 10:48:22;;;;;;;17.05;11.88;;;;;;;;;;5114551;28;20030;-65
2021/04/03 10:50:48;;;;;;;16.60;12.50;;;;;;;;;;5114282;28;20046;-65
2021/04/03 10:53:14;;;;;;;22.30;13.45;;;;;;;;;;5113917;28;20103;-66
2021/04/03 10:55:41;;;;;;;22.75;14.57;;;;;;;;;;5113095;28;20035;-65
2021/04/03 10:58:07;;;;;;;18.88;14.40;;;;;;;;;;5113079;28;20615;-67
2021/04/03 11:00:33;;;;;;;20.63;13.52;;;;;;;;;;5113337;28;20027;-68
2021/04/03 11:02:59;;;;;;;27.07;18.67;;;;;;;;;;5113377;28;20095;-67
2021/04/03 11:05:26;;;;;;;20.15;16.13;;;;;;;;;;5114192;28;20024;-67
2021/04/03 11:07:52;;;;;;;24.70;14.52;;;;;;;;;;5114534;28;20049;-67
2021/04/03 11:10:18;;;;;;;19.02;12.88;;;;;;;;;;5116085;28;20024;-67
2021/04/03 11:12:45;;;;;;;17.50;12.55;;;;;;;;;;5116284;28;20153;-67
2021/04/03 11:15:12;;;;;;;16.30;12.77;;;;;;;;;;5097641;28;20026;-69
2021/04/03 11:17:38;;;;;;;;;;;;;;;;;;5116527;28;20364;-67
2021/04/03 11:20:09;;;;;;;23.92;14.35;;;;;;;;;;5116161;28;19912;-68
2021/04/03 11:22:36;;;;;;;16.38;12.13;;;;;;;;;;5117151;28;20015;-65
2021/04/03 11:25:02;;;;;;;18.83;12.23;;;;;;;;;;5118623;28;20055;-71
2021/04/03 11:27:29;;;;;;;16.10;11.67;;;;;;;;;;5118278;28;20281;-72
2021/04/03 11:29:55;;;;;;;15.27;11.68;;;;;;;;;;5099275;28;20401;-72
2021/04/03 11:32:21;;;;;;;20.27;14.25;;;;;;;;;;5117911;28;20058;-73
2021/04/03 11:34:47;;;;;;;15.68;12.98;;;;;;;;;;5099572;28;20019;-71
2021/04/03 11:37:13;;;;;;;14.77;11.77;;;;;;;;;;5117221;28;20050;-70
2021/04/03 11:39:40;;;;;;;17.02;13.07;;;;;;;;;;5099434;28;20011;-71
2021/04/03 11:42:06;;;;;;;21.10;12.63;;;;;;;;;;5117433;28;20048;-74
2021/04/03 11:44:32;;;;;;;19.42;12.65;;;;;;;;;;5099927;28;20042;-72
2021/04/03 11:46:58;;;;;;;20.88;12.70;;;;;;;;;;5118127;28;20031;-74
2021/04/03 11:49:25;;;;;;;22.10;14.02;;;;;;;;;;5117505;28;20027;-74
2021/04/03 11:51:52;;;;;;;18.83;11.77;;;;;;;;;;5099803;28;20363;-71
2021/04/03 11:54:18;;;;;;;21.77;12.60;;;;;;;;;;5117525;28;20110;-72
2021/04/03 11:56:45;;;;;;;19.95;10.98;;;;;;;;;;5098808;28;20256;-72
2021/04/03 11:59:11;;;;;;;19.23;11.05;;;;;;;;;;5117292;28;20028;-74
2021/04/03 12:01:37;;;;;;;16.58;11.68;;;;;;;;;;5099071;28;20031;-74
2021/04/03 12:04:03;;;;;;;14.80;9.40;;;;;;;;;;5098617;28;20030;-74
2021/04/03 12:06:30;;;;;;;13.18;10.50;;;;;;;;;;5099032;28;20020;-74
2021/04/03 12:08:56;;;;;;;15.77;11.02;;;;;;;;;;5098913;28;20069;-74
2021/04/03 12:11:22;;;;;;;18.70;12.13;;;;;;;;;;5098827;28;20475;-73
2021/04/03 12:13:48;;;;;;;22.67;11.52;;;;;;;;;;5098800;28;20115;-73
2021/04/03 12:16:14;;;;;;;14.85;10.70;;;;;;;;;;5098775;28;20016;-73
2021/04/03 12:18:40;;;;;;;16.35;10.18;;;;;;;;;;5097271;28;20069;-73
2021/04/03 12:21:06;;;;;;;15.05;11.10;;;;;;;;;;5095108;28;20108;-73
2021/04/03 12:23:32;;;;;;;16.67;11.95;;;;;;;;;;5095178;28;20145;-75
2021/04/03 12:25:59;;;;;;;16.90;10.95;;;;;;;;;;5094931;28;20111;-69
2021/04/03 12:28:25;;;;;;;9.68;7.68;;;;;;;;;;5096333;28;20515;-73
2021/04/03 12:30:51;;;;;;;16.42;9.32;;;;;;;;;;5095911;28;20016;-74
2021/04/03 12:33:17;;;;;;;17.95;9.15;;;;;;;;;;5095132;28;20016;-72
2021/04/03 12:35:43;;;;;;;35.38;15.52;;;;;;;;;;5096294;28;20419;-71
2021/04/03 12:38:09;;;;;;;31.33;12.98;;;;;;;;;;5095943;28;20581;-70
2021/04/03 12:40:35;;;;;;;31.45;15.05;;;;;;;;;;5094894;28;20058;-69
2021/04/03 12:43:01;;;;;;;12.55;8.27;;;;;;;;;;5094840;28;20020;-70
2021/04/03 12:45:27;;;;;;;14.57;8.70;;;;;;;;;;5095826;28;20031;-70
2021/04/03 12:47:54;;;;;;;16.05;8.73;;;;;;;;;;5096106;28;20016;-70
2021/04/03 12:50:20;;;;;;;11.88;7.50;;;;;;;;;;5096236;28;20015;-71
2021/04/03 12:52:46;;;;;;;12.00;7.35;;;;;;;;;;5095801;28;20029;-71
2021/04/03 12:55:12;;;;;;;11.90;8.05;;;;;;;;;;5096148;28;20028;-69
2021/04/03 12:57:38;;;;;;;10.43;6.88;;;;;;;;;;5094570;28;20012;-70
2021/04/03 13:00:05;;;;;;;8.63;6.10;;;;;;;;;;5095544;28;20027;-69
2021/04/03 13:02:31;;;;;;;10.32;5.18;;;;;;;;;;5095757;28;20095;-70
2021/04/03 13:04:58;;;;;;;7.78;4.63;;;;;;;;;;5095780;28;20448;-71
2021/04/03 13:07:24;;;;;;;9.32;4.93;;;;;;;;;;5094373;28;20200;-70
2021/04/03 13:09:50;;;;;;;11.18;7.57;;;;;;;;;;5095602;28;20027;-71
2021/04/03 13:12:16;;;;;;;9.70;4.88;;;;;;;;;;5094268;28;20016;-73
2021/04/03 13:14:42;;;;;;;7.90;4.35;;;;;;;;;;5095187;28;20023;-73
2021/04/03 13:17:08;;;;;;;7.13;5.13;;;;;;;;;;5094187;28;20548;-73
2021/04/03 13:19:35;;;;;;;12.18;5.80;;;;;;;;;;5094142;28;20033;-73
2021/04/03 13:22:01;;;;;;;7.55;5.25;;;;;;;;;;5093684;28;20044;-71
2021/04/03 13:24:27;;;;;;;9.68;5.30;;;;;;;;;;5093948;28;20019;-72
2021/04/03 13:26:53;;;;;;;7.80;4.38;;;;;;;;;;5093682;28;20077;-71
2021/04/03 13:29:19;;;;;;;8.75;4.10;;;;;;;;;;5093808;28;20024;-71
2021/04/03 13:31:45;;;;;;;12.25;7.20;;;;;;;;;;5095046;28;20016;-72
2021/04/03 13:34:11;;;;;;;16.95;9.02;;;;;;;;;;5093594;28;20027;-72
2021/04/03 13:36:38;;;;;;;7.57;5.25;;;;;;;;;;5095712;28;20031;-72
2021/04/03 13:39:04;;;;;;;13.50;7.60;;;;;;;;;;5093836;28;20020;-71
2021/04/03 13:41:30;;;;;;;16.65;7.07;;;;;;;;;;5093860;28;20016;-71
2021/04/03 13:43:56;;;;;;;14.52;7.30;;;;;;;;;;5094608;28;20359;-72
2021/04/03 13:46:22;;;;;;;14.95;7.40;;;;;;;;;;5095191;28;20024;-72
2021/04/03 13:48:48;;;;;;;9.88;5.65;;;;;;;;;;5094628;28;20051;-70
2021/04/03 13:51:14;;;;;;;11.60;6.97;;;;;;;;;;5093585;28;20024;-71
2021/04/03 13:53:41;;;;;;;5.97;4.28;;;;;;;;;;5095423;28;20118;-72
2021/04/03 13:56:07;;;;;;;15.65;7.20;;;;;;;;;;5093165;28;20020;-71
2021/04/03 13:58:33;;;;;;;6.07;4.55;;;;;;;;;;5093463;28;20022;-72
2021/04/03 14:00:59;;;;;;;11.43;5.03;;;;;;;;;;5094957;28;20077;-67
2021/04/03 14:03:25;;;;;;;10.13;5.85;;;;;;;;;;5094274;28;20024;-67
2021/04/03 14:05:51;;;;;;;26.48;10.50;;;;;;;;;;5094728;28;20098;-68
2021/04/03 14:08:18;;;;;;;7.28;4.45;;;;;;;;;;5094334;28;20036;-68
2021/04/03 14:10:44;;;;;;;7.65;3.78;;;;;;;;;;5093910;28;20012;-68
2021/04/03 14:13:11;;;;;;;9.95;4.25;;;;;;;;;;5094726;28;20441;-68
2021/04/03 14:15:37;;;;;;;11.20;6.70;;;;;;;;;;5093185;28;20017;-69
2021/04/03 14:18:03;;;;;;;10.82;7.00;;;;;;;;;;5092770;28;20026;-68
2021/04/03 14:20:29;;;;;;;11.25;5.88;;;;;;;;;;5092805;28;20040;-68